Time;durP1;ratioP1;P1;durP2;ratioP2;P2;SDS_P1;SDS_P2;PMS_P1;PMS_P2;Temp;Humidity;BMP_temperature;BMP_pressure;BME280_temperature;BME280_humidity;BME280_pressure;Samples;Min_cycle;Max_cycle;Signal;HPM_P1;HPM_P2
2021/12/02 00:00:45;;;;;;;0.65;0.65;;;;;;;2.41;100.00;99202.13;6209201;23;20110;-53
2021/12/02 00:03:49;;;;;;;0.40;0.40;;;;;;;2.41;100.00;99199.38;6209212;23;20028;-53
2021/12/02 00:06:52;;;;;;;0.43;0.43;;;;;;;2.41;100.00;99199.38;6208987;22;20389;-53
2021/12/02 00:09:55;;;;;;;0.60;0.60;;;;;;;2.38;100.00;99207.72;6208831;23;20028;-53
2021/12/02 00:12:59;;;;;;;3.10;1.42;;;;;;;2.34;100.00;99210.56;6202044;23;20027;-54
2021/12/02 00:16:21;;;;;;;0.90;0.90;;;;;;;2.28;100.00;99209.56;6189725;23;20031;-53
2021/12/02 00:23:11;;;;;;;0.57;0.57;;;;;;;2.08;100.00;99203.47;6201283;23;20045;-53
2021/12/02 00:26:17;;;;;;;0.68;0.68;;;;;;;1.95;100.00;99219.88;6204720;23;20052;-54
2021/12/02 00:29:21;;;;;;;0.50;0.50;;;;;;;1.91;100.00;99210.94;6207061;23;20023;-53
2021/12/02 00:32:30;;;;;;;0.70;0.70;;;;;;;1.85;100.00;99218.19;6214395;23;20020;-53
2021/12/02 00:35:33;;;;;;;0.90;0.90;;;;;;;1.87;100.00;99210.28;6212746;23;20575;-53
2021/12/02 00:38:37;;;;;;;1.88;0.93;;;;;;;1.88;100.00;99213.81;6213366;23;20495;-53
2021/12/02 00:41:41;;;;;;;0.52;0.52;;;;;;;1.91;100.00;99205.47;6213308;23;20043;-54
2021/12/02 00:44:44;;;;;;;0.50;0.50;;;;;;;1.88;100.00;99197.34;6214273;23;20070;-53
2021/12/02 00:47:48;;;;;;;0.65;0.65;;;;;;;1.82;100.00;99210.06;6214427;23;20102;-53
2021/12/02 00:50:51;;;;;;;0.98;0.98;;;;;;;1.78;100.00;99214.84;6195074;23;20032;-55
2021/12/02 00:53:55;;;;;;;0.73;0.73;;;;;;;1.71;100.00;99209.56;6213067;23;20047;-55
2021/12/02 00:57:02;;;;;;;0.85;0.85;;;;;;;1.65;100.00;99194.78;6195997;23;20350;-54
2021/12/02 01:00:06;;;;;;;0.57;0.57;;;;;;;1.60;100.00;99198.06;6196077;23;20024;-55
2021/12/02 01:03:09;;;;;;;5.18;1.83;;;;;;;1.58;100.00;99211.47;6196685;23;20055;-54
2021/12/02 01:06:12;;;;;;;0.60;0.60;;;;;;;1.54;100.00;99217.78;6195932;23;20489;-55
2021/12/02 01:09:16;;;;;;;1.20;1.20;;;;;;;1.54;100.00;99217.78;6195911;23;20078;-55
2021/12/02 01:12:19;;;;;;;0.82;0.82;;;;;;;1.56;100.00;99213.84;6213075;23;20070;-55
2021/12/02 01:15:22;;;;;;;0.80;0.80;;;;;;;1.60;100.00;99209.81;6196222;23;20079;-54
2021/12/02 01:18:26;;;;;;;1.05;1.05;;;;;;;1.65;100.00;99200.28;6207014;23;20498;-54
2021/12/02 01:21:29;;;;;;;0.90;0.90;;;;;;;1.71;100.00;99206.81;6200827;23;20404;-54
2021/12/02 01:24:33;;;;;;;1.45;0.98;;;;;;;1.72;100.00;99194.59;6200693;23;20616;-55
2021/12/02 01:27:39;;;;;;;0.95;0.95;;;;;;;1.75;100.00;99215.72;6213592;23;20155;-55
2021/12/02 01:30:42;;;;;;;0.88;0.88;;;;;;;1.77;100.00;99214.09;6212992;23;20019;-55
2021/12/02 01:33:46;;;;;;;1.77;1.00;;;;;;;1.78;100.00;99215.63;6213308;23;20071;-55
2021/12/02 01:36:51;;;;;;;1.00;1.00;;;;;;;1.82;100.00;99221.03;6213373;23;20039;-55
2021/12/02 01:39:55;;;;;;;0.93;0.93;;;;;;;1.85;100.00;99203.69;6212816;23;20028;-55
2021/12/02 01:42:58;;;;;;;1.25;0.80;;;;;;;1.95;100.00;99202.63;6213159;23;20074;-55
2021/12/02 01:46:03;;;;;;;0.80;0.77;;;;;;;2.00;100.00;99215.81;6243014;22;20066;-55
2021/12/02 01:49:09;;;;;;;0.80;0.80;;;;;;;2.09;100.00;99229.69;6224363;22;20474;-55
2021/12/02 01:52:13;;;;;;;0.22;0.22;;;;;;;2.08;100.00;99222.69;6243081;22;20023;-55
2021/12/02 01:55:17;;;;;;;0.60;0.60;;;;;;;2.13;100.00;99213.91;6243022;22;20160;-55
2021/12/02 01:58:23;;;;;;;0.60;0.60;;;;;;;2.17;100.00;99211.81;6243185;22;20487;-55
2021/12/02 02:01:27;;;;;;;0.60;0.60;;;;;;;2.26;100.00;99207.25;6243500;22;20070;-55
2021/12/02 02:04:30;;;;;;;2.80;1.27;;;;;;;2.32;100.00;99212.97;6243417;22;20472;-55
2021/12/02 02:07:36;;;;;;;0.60;0.60;;;;;;;2.39;100.00;99215.50;6242791;22;20073;-55
2021/12/02 02:10:41;;;;;;;0.40;0.40;;;;;;;2.44;100.00;99223.22;6243015;22;20081;-54
2021/12/02 02:13:44;;;;;;;0.90;0.90;;;;;;;2.49;100.00;99219.94;6243342;22;20064;-55
2021/12/02 02:16:48;;;;;;;0.63;0.63;;;;;;;2.61;100.00;99210.94;6242431;22;20073;-55
2021/12/02 02:19:51;;;;;;;0.45;0.45;;;;;;;2.56;100.00;99214.22;6243370;22;20031;-55
2021/12/02 02:22:54;;;;;;;0.20;0.20;;;;;;;2.59;100.00;99213.38;6243425;22;20344;-55
2021/12/02 02:25:58;;;;;;;0.70;0.70;;;;;;;2.57;100.00;99193.81;6243417;22;20030;-55
2021/12/02 02:29:04;;;;;;;22.77;2.15;;;;;;;2.55;100.00;99204.47;6243367;23;20028;-55
2021/12/02 02:32:07;;;;;;;2.63;1.02;;;;;;;2.59;100.00;99193.34;6243505;22;20051;-55
2021/12/02 02:35:10;;;;;;;0.57;0.57;;;;;;;2.65;100.00;99206.13;6224756;23;20099;-55
2021/12/02 02:38:14;;;;;;;0.32;0.32;;;;;;;2.61;100.00;99204.69;6243656;23;20463;-55
2021/12/02 02:41:20;;;;;;;0.70;0.70;;;;;;;2.62;100.00;99215.22;6242950;22;20023;-55
2021/12/02 02:44:25;;;;;;;2.17;0.73;;;;;;;2.63;100.00;99205.00;6242773;23;20352;-55
2021/12/02 02:47:29;;;;;;;0.52;0.52;;;;;;;2.66;100.00;99198.66;6242679;23;20019;-55
2021/12/02 02:50:33;;;;;;;1.02;1.02;;;;;;;2.68;100.00;99199.75;6242746;22;20023;-55
2021/12/02 02:53:36;;;;;;;0.70;0.70;;;;;;;2.70;100.00;99202.84;6243055;23;20027;-55
2021/12/02 02:57:08;;;;;;;0.57;0.57;;;;;;;2.71;100.00;99193.38;6243215;22;20041;-55
2021/12/02 03:00:12;;;;;;;1.17;1.08;;;;;;;2.70;100.00;99191.06;6242726;23;20023;-55
2021/12/02 03:10:22;;;;;;;0.50;0.50;;;;;;;2.76;100.00;99167.31;6242801;23;20027;-55
2021/12/02 03:19:44;;;;;;;0.60;0.60;;;;;;;3.08;100.00;99206.38;6243193;23;20023;-55
2021/12/02 03:22:47;;;;;;;0.60;0.60;;;;;;;3.13;100.00;99212.53;6243297;22;20085;-55
2021/12/02 03:25:50;;;;;;;0.57;0.57;;;;;;;3.12;100.00;99213.75;6243202;22;20051;-55
2021/12/02 03:28:54;;;;;;;1.10;1.10;;;;;;;3.10;100.00;99213.41;6241872;23;20074;-55
2021/12/02 03:31:57;;;;;;;0.57;0.50;;;;;;;3.08;100.00;99217.38;6243898;22;20027;-55
2021/12/02 03:35:00;;;;;;;0.52;0.52;;;;;;;3.02;100.00;99218.34;6244834;23;20078;-55
2021/12/02 03:38:03;;;;;;;1.38;1.25;;;;;;;3.05;100.00;99201.72;6244782;23;20055;-55
2021/12/02 03:41:07;;;;;;;0.50;0.50;;;;;;;3.09;100.00;99212.63;6244742;22;20074;-55
2021/12/02 03:44:10;;;;;;;0.32;0.32;;;;;;;3.11;100.00;99214.94;6245147;23;20024;-55
2021/12/02 03:47:13;;;;;;;1.38;1.27;;;;;;;3.12;100.00;99213.75;6245274;22;20027;-55
2021/12/02 03:50:16;;;;;;;0.70;0.70;;;;;;;3.11;100.00;99221.22;6245034;23;20082;-57
2021/12/02 03:53:19;;;;;;;0.43;0.43;;;;;;;3.10;100.00;99233.41;6244113;23;20023;-57
2021/12/02 03:56:22;;;;;;;0.40;0.40;;;;;;;3.15;100.00;99216.38;6244866;22;20070;-57
2021/12/02 03:59:25;;;;;;;0.57;0.57;;;;;;;3.19;100.00;99225.28;6244982;23;20027;-57
2021/12/02 04:02:29;;;;;;;0.43;0.43;;;;;;;3.18;100.00;99220.22;6244993;23;20027;-57
2021/12/02 04:05:32;;;;;;;0.20;0.20;;;;;;;3.19;100.00;99216.25;6243420;22;20107;-56
2021/12/02 04:08:45;;;;;;;0.68;0.68;;;;;;;3.03;100.00;99215.16;6244393;23;20030;-57
2021/12/02 04:12:09;;;;;;;0.32;0.32;;;;;;;3.03;100.00;99223.41;6244546;22;20058;-57
2021/12/02 04:15:17;;;;;;;1.85;0.75;;;;;;;3.08;100.00;99206.38;6244703;23;20027;-57
2021/12/02 04:18:20;;;;;;;0.63;0.63;;;;;;;3.08;100.00;99220.13;6245049;23;20027;-56
2021/12/02 04:21:23;;;;;;;0.20;0.20;;;;;;;3.12;100.00;99233.75;6244753;22;20478;-57
2021/12/02 04:24:26;;;;;;;1.42;1.38;;;;;;;2.97;100.00;99216.13;6244676;23;20046;-57
2021/12/02 04:27:29;;;;;;;0.50;0.50;;;;;;;2.91;100.00;99224.19;6244591;23;20108;-57
2021/12/02 04:30:33;;;;;;;0.35;0.35;;;;;;;2.84;100.00;99229.88;6243887;22;20027;-56
2021/12/02 04:33:35;;;;;;;0.38;0.38;;;;;;;2.77;100.00;99241.09;6243986;23;20019;-57
2021/12/02 04:36:39;;;;;;;0.30;0.30;;;;;;;2.67;100.00;99235.91;6243645;22;20333;-57
2021/12/02 04:39:42;;;;;;;0.40;0.40;;;;;;;2.57;100.00;99237.00;6243936;23;20023;-56
2021/12/02 04:42:45;;;;;;;0.20;0.20;;;;;;;2.47;100.00;99247.06;6243820;22;20169;-56
2021/12/02 04:45:48;;;;;;;0.63;0.63;;;;;;;2.36;100.00;99260.34;6243998;22;20081;-57
2021/12/02 04:48:51;;;;;;;0.93;0.93;;;;;;;2.21;100.00;99259.19;6244409;23;20074;-57
2021/12/02 04:51:55;;;;;;;0.50;0.50;;;;;;;2.19;100.00;99256.09;6244253;22;20027;-57
2021/12/02 04:54:57;;;;;;;1.58;1.38;;;;;;;2.11;100.00;99257.50;6244188;23;20094;-57
2021/12/02 04:58:01;;;;;;;1.08;0.85;;;;;;;2.06;100.00;99244.28;6243893;23;20321;-57
2021/12/02 05:01:04;;;;;;;0.55;0.55;;;;;;;1.99;100.00;99241.75;6244365;22;20023;-57
2021/12/02 05:04:08;;;;;;;0.32;0.32;;;;;;;1.89;100.00;99240.03;6244061;23;20051;-57
2021/12/02 05:07:11;;;;;;;0.40;0.40;;;;;;;1.87;100.00;99245.19;6243660;22;20102;-57
2021/12/02 05:10:15;;;;;;;0.50;0.50;;;;;;;1.90;100.00;99238.84;6243736;23;20035;-56
2021/12/02 05:13:18;;;;;;;1.13;1.08;;;;;;;1.85;100.00;99242.09;6244211;23;20069;-56
2021/12/02 05:16:21;;;;;;;0.88;0.88;;;;;;;1.98;100.00;99246.47;6243494;22;20104;-56
2021/12/02 05:19:24;;;;;;;2.20;1.25;;;;;;;2.08;100.00;99250.16;6225702;23;20097;-57
2021/12/02 05:22:27;;;;;;;1.08;1.00;;;;;;;2.08;100.00;99247.41;6243781;23;20054;-57
2021/12/02 05:25:30;;;;;;;0.50;0.50;;;;;;;2.11;100.00;99236.31;6243633;23;20052;-57
2021/12/02 05:28:33;;;;;;;0.40;0.40;;;;;;;2.16;100.00;99240.50;6243105;23;20027;-56
2021/12/02 05:31:36;;;;;;;0.30;0.30;;;;;;;2.26;100.00;99242.19;6225588;23;20067;-57
2021/12/02 05:34:39;;;;;;;0.50;0.50;;;;;;;2.27;100.00;99249.22;6224735;23;20217;-57
2021/12/02 05:37:42;;;;;;;0.40;0.40;;;;;;;2.27;100.00;99246.47;6243489;22;20023;-57
2021/12/02 05:40:45;;;;;;;0.35;0.35;;;;;;;2.39;100.00;99256.72;6243047;22;20404;-57
2021/12/02 05:43:48;;;;;;;0.52;0.52;;;;;;;2.45;100.00;99263.22;6243765;23;20023;-57
2021/12/02 05:46:52;;;;;;;0.28;0.28;;;;;;;2.43;100.00;99273.88;6243877;22;20077;-57
2021/12/02 05:49:54;;;;;;;0.30;0.30;;;;;;;2.32;100.00;99265.16;6244000;23;20023;-57
2021/12/02 05:52:57;;;;;;;0.20;0.20;;;;;;;2.28;100.00;99264.50;6224414;23;20027;-57
2021/12/02 05:56:01;;;;;;;0.63;0.63;;;;;;;2.29;100.00;99288.81;6242935;22;20452;-57
2021/12/02 05:59:03;;;;;;;0.17;0.17;;;;;;;2.36;100.00;99282.31;6243311;23;20023;-57
2021/12/02 06:02:07;;;;;;;0.57;0.57;;;;;;;2.45;100.00;99279.72;6243055;22;20027;-57
2021/12/02 06:05:15;;;;;;;3.40;0.70;;;;;;;2.57;100.00;99270.75;6242922;23;20066;-57
2021/12/02 06:08:18;;;;;;;0.30;0.30;;;;;;;2.69;100.00;99274.72;6243720;23;20027;-57
2021/12/02 06:11:22;;;;;;;0.60;0.60;;;;;;;2.77;100.00;99274.06;6243731;22;20051;-56
2021/12/02 06:14:25;;;;;;;0.30;0.30;;;;;;;2.83;100.00;99280.59;6244043;23;20081;-56
2021/12/02 06:17:28;;;;;;;0.20;0.20;;;;;;;2.81;100.00;99293.25;6243461;23;20090;-56
2021/12/02 06:20:31;;;;;;;12.63;0.80;;;;;;;2.78;100.00;99297.63;6242795;22;20027;-56
2021/12/02 06:23:35;;;;;;;15.05;1.27;;;;;;;2.83;100.00;99305.34;6242899;23;20066;-56
2021/12/02 06:26:39;;;;;;;25.13;2.05;;;;;;;2.81;100.00;99302.28;6242947;22;20070;-56
2021/12/02 06:29:42;;;;;;;2.05;1.55;;;;;;;2.63;100.00;99312.97;6243319;23;20031;-56
2021/12/02 06:32:45;;;;;;;1.63;1.52;;;;;;;2.49;100.00;99316.09;6243603;22;20039;-56
2021/12/02 06:35:48;;;;;;;4.88;1.52;;;;;;;2.48;100.00;99317.31;6242945;22;20041;-56
2021/12/02 06:38:51;;;;;;;0.85;0.85;;;;;;;2.60;100.00;99308.34;6243600;23;20051;-56
2021/12/02 06:41:55;;;;;;;0.30;0.30;;;;;;;2.64;100.00;99320.00;6243737;22;20026;-56
2021/12/02 06:44:58;;;;;;;0.57;0.57;;;;;;;2.54;100.00;99321.09;6243212;23;20111;-56
2021/12/02 06:48:02;;;;;;;0.20;0.20;;;;;;;2.41;100.00;99324.97;6243270;23;20023;-56
2021/12/02 06:51:04;;;;;;;0.82;0.82;;;;;;;2.32;100.00;99331.09;6243519;22;20712;-56
2021/12/02 06:54:08;;;;;;;0.80;0.80;;;;;;;2.31;100.00;99324.06;6243111;23;20027;-55
2021/12/02 06:57:11;;;;;;;0.35;0.35;;;;;;;2.35;100.00;99334.97;6243382;22;20030;-54
2021/12/02 07:00:16;;;;;;;1.98;1.50;;;;;;;2.19;100.00;99333.00;6243193;23;20475;-54
2021/12/02 07:03:19;;;;;;;0.60;0.60;;;;;;;2.29;100.00;99342.97;6243497;23;20043;-54
2021/12/02 07:06:22;;;;;;;15.63;1.75;;;;;;;2.32;100.00;99346.81;6242862;22;20038;-54
2021/12/02 07:09:25;;;;;;;0.80;0.80;;;;;;;2.31;100.00;99362.53;6245533;23;20026;-54
2021/12/02 07:12:31;;;;;;;1.08;1.05;;;;;;;2.34;100.00;99372.63;6245179;23;20027;-54
2021/12/02 07:15:41;;;;;;;2.05;1.55;;;;;;;2.19;100.00;99379.69;6244443;22;20026;-54
2021/12/02 07:18:48;;;;;;;0.88;0.88;;;;;;;2.16;100.00;99383.31;6244952;23;20046;-54
2021/12/02 07:21:50;;;;;;;0.77;0.77;;;;;;;2.11;100.00;99403.06;6245432;22;20031;-54
2021/12/02 07:24:53;;;;;;;6.22;1.17;;;;;;;2.03;100.00;99407.19;6244867;23;20507;-54
2021/12/02 07:27:56;;;;;;;0.43;0.43;;;;;;;1.96;100.00;99410.88;6244798;23;20097;-54
2021/12/02 07:31:01;;;;;;;2.58;1.08;;;;;;;1.94;100.00;99417.97;6244492;22;20043;-54
2021/12/02 07:34:05;;;;;;;0.22;0.22;;;;;;;2.07;100.00;99418.84;6245115;23;20023;-54
2021/12/02 07:37:08;;;;;;;0.70;0.70;;;;;;;2.05;100.00;99421.25;6244692;22;20464;-55
2021/12/02 07:40:13;;;;;;;0.90;0.90;;;;;;;2.00;100.00;99428.03;6244340;23;20085;-55
2021/12/02 07:43:17;;;;;;;0.45;0.45;;;;;;;1.89;100.00;99429.47;6245295;23;20028;-55
2021/12/02 07:46:20;;;;;;;0.50;0.50;;;;;;;1.97;100.00;99436.34;6244645;22;20138;-54
2021/12/02 07:49:23;;;;;;;0.98;0.98;;;;;;;1.99;100.00;99444.94;6244327;23;20027;-54
2021/12/02 07:52:26;;;;;;;7.45;2.55;;;;;;;2.02;100.00;99449.56;6244123;23;20023;-54
2021/12/02 07:55:30;;;;;;;7.32;2.92;;;;;;;2.07;100.00;99457.28;6244524;23;20530;-55
2021/12/02 07:58:34;;;;;;;1.33;1.33;;;;;;;2.05;100.00;99457.72;6243883;23;20051;-55
2021/12/02 08:01:37;;;;;;;6.03;2.33;;;;;;;1.99;100.00;99464.16;6244214;22;20078;-54
2021/12/02 08:04:40;;;;;;;0.88;0.88;;;;;;;2.06;100.00;99467.50;6244173;23;20031;-57
2021/12/02 08:07:44;;;;;;;1.20;1.20;;;;;;;1.92;100.00;99473.34;6244573;22;20436;-57
2021/12/02 08:10:47;;;;;;;0.80;0.80;;;;;;;1.97;100.00;99470.06;6243767;22;20158;-55
2021/12/02 08:13:54;;;;;;;1.38;1.38;;;;;;;1.96;100.00;99478.72;6244321;23;20026;-55
2021/12/02 08:16:57;;;;;;;0.68;0.68;;;;;;;2.08;100.00;99478.84;6244004;22;20082;-55
2021/12/02 08:20:00;;;;;;;0.60;0.60;;;;;;;2.12;100.00;99481.50;6244519;23;20023;-55
2021/12/02 08:23:04;;;;;;;0.60;0.60;;;;;;;2.10;100.00;99481.16;6244072;23;20023;-55
2021/12/02 08:26:07;;;;;;;0.47;0.47;;;;;;;2.15;100.00;99486.13;6244226;22;20047;-55
2021/12/02 08:29:10;;;;;;;0.45;0.45;;;;;;;2.28;100.00;99490.53;6244342;23;20457;-55
2021/12/02 08:32:14;;;;;;;0.30;0.30;;;;;;;2.34;100.00;99490.78;6244389;22;20035;-55
2021/12/02 08:35:18;;;;;;;0.80;0.80;;;;;;;2.34;100.00;99504.50;6243857;23;20081;-55
2021/12/02 08:38:29;;;;;;;0.70;0.70;;;;;;;2.19;100.00;99508.78;6244321;23;20102;-55
2021/12/02 08:41:32;;;;;;;0.50;0.50;;;;;;;2.07;100.00;99496.53;6243320;22;20105;-55
2021/12/02 08:44:39;;;;;;;0.63;0.63;;;;;;;2.03;100.00;99508.78;6243505;23;20030;-55
2021/12/02 08:47:45;;;;;;;0.50;0.50;;;;;;;2.08;100.00;99511.03;6243683;22;20070;-55
2021/12/02 08:50:49;;;;;;;0.45;0.45;;;;;;;2.23;100.00;99515.00;6226687;22;20341;-55
2021/12/02 08:53:52;;;;;;;0.90;0.90;;;;;;;2.28;100.00;99528.22;6244069;23;20027;-55
2021/12/02 08:56:55;;;;;;;0.63;0.63;;;;;;;2.30;100.00;99525.81;6243910;22;20098;-55
2021/12/02 08:59:57;;;;;;;1.08;1.08;;;;;;;2.33;100.00;99533.22;6244110;23;20026;-55
2021/12/02 09:03:06;;;;;;;0.70;0.70;;;;;;;2.35;100.00;99536.28;6244356;23;20027;-55
2021/12/02 09:06:10;;;;;;;0.60;0.60;;;;;;;2.41;100.00;99542.81;6243123;22;20030;-55
2021/12/02 09:09:13;;;;;;;1.88;1.13;;;;;;;2.56;100.00;99543.25;6244214;23;20070;-56
2021/12/02 09:33:51;;;;;;;0.25;0.25;;;;;;;2.77;100.00;99548.25;6157953;22;1585901;-53
2021/12/02 09:36:56;;;;;;;0.60;0.60;;;;;;;2.67;100.00;99555.56;6221482;22;20353;-53
2021/12/02 09:39:58;;;;;;;1.48;0.60;;;;;;;2.65;100.00;99563.47;6220415;23;20132;-53
2021/12/02 09:43:03;;;;;;;0.52;0.52;;;;;;;2.81;100.00;99574.47;6221440;22;20027;-53
2021/12/02 09:46:06;;;;;;;0.50;0.50;;;;;;;2.80;100.00;99578.41;6221185;23;20024;-53
2021/12/02 09:49:12;;;;;;;4.82;1.10;;;;;;;2.99;100.00;99583.03;6221040;23;20074;-53
2021/12/02 09:52:16;;;;;;;0.43;0.43;;;;;;;3.12;100.00;99574.09;6221079;22;20171;-53
2021/12/02 09:55:36;;;;;;;3.20;1.20;;;;;;;3.21;100.00;99577.00;6198467;23;20023;-53
2021/12/02 09:58:40;;;;;;;0.65;0.65;;;;;;;3.38;100.00;99597.81;6219798;23;20020;-53
2021/12/02 10:01:47;;;;;;;0.52;0.52;;;;;;;3.40;100.00;99595.38;6221027;22;20048;-53
2021/12/02 10:05:03;;;;;;;0.70;0.70;;;;;;;3.51;100.00;99595.88;6220578;23;20046;-53
2021/12/02 10:08:09;;;;;;;0.40;0.40;;;;;;;3.45;100.00;99595.63;6221538;22;20349;-53
2021/12/02 10:11:25;;;;;;;0.38;0.38;;;;;;;3.72;100.00;99600.78;6220827;23;20069;-53
2021/12/02 10:14:34;;;;;;;0.20;0.20;;;;;;;3.74;100.00;99604.66;6196737;23;20047;-53
2021/12/02 10:17:49;;;;;;;0.60;0.60;;;;;;;3.72;100.00;99611.81;6202375;23;20028;-54
2021/12/02 10:20:52;;;;;;;1.40;1.05;;;;;;;3.60;100.00;99615.28;6190558;23;20032;-53
2021/12/02 10:24:00;;;;;;;0.35;0.35;;;;;;;3.58;100.00;99620.44;6190643;23;20154;-53
2021/12/02 10:27:05;;;;;;;0.63;0.63;;;;;;;3.67;100.00;99626.88;6208428;23;20047;-53
2021/12/02 10:30:24;;;;;;;0.90;0.90;;;;;;;3.70;100.00;99630.75;6213028;23;20050;-53
2021/12/02 10:33:32;;;;;;;0.73;0.73;;;;;;;3.75;100.00;99624.69;6217579;23;20098;-53
2021/12/02 10:36:35;;;;;;;0.70;0.70;;;;;;;3.78;100.00;99627.38;6213686;22;20023;-53
2021/12/02 10:39:39;;;;;;;3.30;1.35;;;;;;;3.81;100.00;99625.72;6214558;23;20361;-53
2021/12/02 10:42:45;;;;;;;0.40;0.40;;;;;;;3.73;100.00;99635.38;6214362;22;20027;-53
2021/12/02 10:45:47;;;;;;;0.85;0.60;;;;;;;3.61;100.00;99636.09;6213047;23;20108;-54
2021/12/02 10:48:52;;;;;;;0.40;0.40;;;;;;;3.57;100.00;99640.94;6214042;23;20368;-54
2021/12/02 10:51:58;;;;;;;0.70;0.70;;;;;;;3.63;100.00;99636.44;6212224;22;20028;-55
2021/12/02 10:55:03;;;;;;;6.25;1.50;;;;;;;3.77;100.00;99636.03;6213886;22;20035;-53
2021/12/02 10:58:06;;;;;;;0.73;0.73;;;;;;;3.85;100.00;99642.94;6214503;23;20322;-56
2021/12/02 11:01:09;;;;;;;0.38;0.38;;;;;;;3.84;100.00;99642.16;6213727;22;20027;-56
2021/12/02 11:04:13;;;;;;;0.35;0.35;;;;;;;3.87;100.00;99635.00;6213643;23;20344;-57
2021/12/02 11:07:32;;;;;;;0.50;0.50;;;;;;;3.90;100.00;99636.88;6213798;23;20476;-58
2021/12/02 11:10:38;;;;;;;0.50;0.47;;;;;;;3.91;100.00;99654.97;6213150;22;20467;-56
2021/12/02 11:13:48;;;;;;;0.63;0.63;;;;;;;3.94;100.00;99634.81;6212710;23;20027;-56
2021/12/02 11:16:51;;;;;;;0.60;0.60;;;;;;;4.00;100.00;99643.31;6213995;22;20055;-56
2021/12/02 11:19:54;;;;;;;0.73;0.73;;;;;;;3.94;100.00;99632.06;6214144;22;20027;-56
2021/12/02 11:23:01;;;;;;;0.85;0.85;;;;;;;4.01;100.00;99637.34;6213853;23;20039;-56
2021/12/02 11:26:11;;;;;;;0.40;0.40;;;;;;;4.10;100.00;99631.97;6213807;22;20032;-56
2021/12/02 11:29:14;;;;;;;0.40;0.40;;;;;;;4.14;100.00;99621.63;6213537;23;20027;-61
2021/12/02 11:32:24;;;;;;;0.50;0.50;;;;;;;4.15;100.00;99628.69;6213577;23;20373;-57
2021/12/02 11:35:32;;;;;;;0.32;0.32;;;;;;;4.19;100.00;99634.09;6213717;22;20034;-57
2021/12/02 11:38:35;;;;;;;0.32;0.32;;;;;;;4.22;100.00;99636.72;6213095;23;20031;-57
2021/12/02 11:41:37;;;;;;;10.43;0.93;;;;;;;4.47;100.00;99638.78;6213389;22;20135;-57
2021/12/02 11:44:42;;;;;;;1.00;1.00;;;;;;;4.62;100.00;99628.84;6213053;22;20074;-56
2021/12/02 11:47:45;;;;;;;0.13;0.13;;;;;;;4.63;100.00;99629.63;6213962;23;20456;-56
2021/12/02 11:50:50;;;;;;;3.45;0.73;;;;;;;4.62;100.00;99617.81;6213580;22;20484;-57
2021/12/02 11:53:53;;;;;;;0.30;0.30;;;;;;;4.69;100.00;99608.56;6213376;23;20020;-57
2021/12/02 11:56:56;;;;;;;0.82;0.82;;;;;;;4.71;100.00;99615.19;6213315;23;20051;-54
2021/12/02 12:00:02;;;;;;;0.30;0.30;;;;;;;4.71;100.00;99604.16;6213377;22;20047;-54
2021/12/02 12:03:11;;;;;;;0.43;0.43;;;;;;;4.63;100.00;99611.13;6213986;23;20040;-54
2021/12/02 12:06:23;;;;;;;0.60;0.55;;;;;;;4.60;100.00;99615.53;6213536;23;20028;-54
2021/12/02 12:09:26;;;;;;;;;;;;;;;4.63;100.00;99630.41;6214091;23;20052;-54
2021/12/02 12:12:37;;;;;;;0.73;0.65;;;;;;;4.63;100.00;99622.16;6213330;23;19918;-54
2021/12/02 12:15:43;;;;;;;0.20;0.20;;;;;;;4.56;100.00;99625.13;6212915;22;20352;-54
2021/12/02 12:18:47;;;;;;;4.25;1.60;;;;;;;4.70;100.00;99629.44;6213661;23;20071;-54
2021/12/02 12:22:30;;;;;;;0.40;0.40;;;;;;;4.74;100.00;99621.81;6213170;22;20349;-54
2021/12/02 12:25:33;;;;;;;0.40;0.40;;;;;;;4.74;100.00;99622.59;6212555;22;20031;-54
2021/12/02 12:29:04;;;;;;;0.45;0.45;;;;;;;4.85;100.00;99609.22;6212562;23;20046;-54
2021/12/02 12:32:23;;;;;;;3.60;1.08;;;;;;;4.90;100.00;99621.69;6213036;23;20086;-54
2021/12/02 12:39:20;;;;;;;0.50;0.50;;;;;;;4.99;100.00;99610.75;6212593;23;20529;-54
2021/12/02 12:42:23;;;;;;;0.73;0.45;;;;;;;5.13;100.00;99599.25;6213286;23;20031;-54
2021/12/02 12:45:31;;;;;;;2.50;1.17;;;;;;;5.13;100.00;99604.78;6212872;22;20047;-54
2021/12/02 12:48:34;;;;;;;0.43;0.43;;;;;;;5.10;100.00;99608.41;6213031;23;20146;-54
2021/12/02 12:51:47;;;;;;;0.52;0.52;;;;;;;5.13;100.00;99602.03;6213489;22;20023;-54
2021/12/02 12:55:16;;;;;;;0.30;0.30;;;;;;;5.20;100.00;99623.84;6213270;22;20032;-54
2021/12/02 12:58:20;;;;;;;0.17;0.17;;;;;;;5.31;100.00;99618.75;6213480;23;20067;-54
2021/12/02 13:01:26;;;;;;;0.30;0.30;;;;;;;5.41;100.00;99623.16;6212303;22;20023;-54
2021/12/02 13:04:32;;;;;;;0.90;0.43;;;;;;;5.43;100.00;99615.19;6213025;23;20196;-57
2021/12/02 13:07:35;;;;;;;0.55;0.55;;;;;;;5.48;100.00;99614.59;6212328;23;20043;-54
2021/12/02 13:10:58;;;;;;;0.60;0.60;;;;;;;5.48;100.00;99620.13;6212531;22;20074;-54
2021/12/02 13:14:04;;;;;;;0.30;0.30;;;;;;;5.43;100.00;99617.94;6212607;23;20091;-54
2021/12/02 13:17:38;;;;;;;0.20;0.20;;;;;;;5.41;100.00;99614.88;6212636;23;20225;-54
2021/12/02 13:20:42;;;;;;;1.23;1.20;;;;;;;5.42;100.00;99624.69;6212654;22;20086;-53
2021/12/02 13:24:09;;;;;;;0.20;0.20;;;;;;;5.48;100.00;99628.41;6212865;23;20031;-57
2021/12/02 13:27:12;;;;;;;0.52;0.52;;;;;;;5.52;100.00;99629.09;6213141;23;20086;-57
2021/12/02 13:30:15;;;;;;;23.15;0.80;;;;;;;5.50;100.00;99625.22;6212390;22;20047;-57
2021/12/02 13:33:19;;;;;;;0.55;0.55;;;;;;;5.46;100.00;99635.63;6212234;23;20392;-57
2021/12/02 13:36:36;;;;;;;7.15;0.70;;;;;;;5.41;100.00;99636.97;6212506;22;20086;-57
2021/12/02 13:39:42;;;;;;;0.30;0.30;;;;;;;5.37;100.00;99645.34;6212213;22;20116;-56
2021/12/02 13:42:45;;;;;;;0.85;0.65;;;;;;;5.30;100.00;99650.34;6212230;23;20345;-56
2021/12/02 13:45:48;;;;;;;0.63;0.40;;;;;;;5.23;100.00;99653.31;6212452;22;20075;-57
2021/12/02 13:48:56;;;;;;;2.08;1.08;;;;;;;5.08;100.00;99633.72;6213047;23;20460;-57
2021/12/02 13:55:37;;;;;;;0.43;0.43;;;;;;;4.79;100.00;99618.47;6211824;22;20027;-56
2021/12/02 13:58:39;;;;;;;0.50;0.50;;;;;;;4.75;100.00;99620.59;6212469;23;20119;-57
2021/12/02 14:02:08;;;;;;;0.63;0.63;;;;;;;4.79;100.00;99604.69;6212808;22;20047;-57
2021/12/02 14:05:14;;;;;;;12.13;0.90;;;;;;;4.81;100.00;99585.72;6212561;22;20079;-57
2021/12/02 14:08:20;;;;;;;0.90;0.45;;;;;;;4.83;100.00;99595.09;6213231;23;20023;-57
2021/12/02 14:11:23;;;;;;;0.57;0.30;;;;;;;4.92;100.00;99597.19;6214576;22;20120;-57
2021/12/02 14:14:26;;;;;;;0.47;0.47;;;;;;;4.98;100.00;99584.38;6214746;23;20051;-57
2021/12/02 14:17:34;;;;;;;0.10;0.10;;;;;;;4.97;100.00;99588.34;6214447;23;20082;-57
2021/12/02 14:20:43;;;;;;;0.45;0.45;;;;;;;4.91;100.00;99584.59;6214174;22;20023;-57
2021/12/02 14:23:50;;;;;;;0.43;0.30;;;;;;;4.87;100.00;99590.25;6213841;23;20032;-57
2021/12/02 14:26:53;;;;;;;0.40;0.40;;;;;;;4.94;100.00;99589.22;6214360;22;20071;-57
2021/12/02 14:30:16;;;;;;;0.47;0.47;;;;;;;4.95;100.00;99597.06;6214405;22;20047;-57
2021/12/02 14:33:28;;;;;;;8.60;0.75;;;;;;;4.85;100.00;99605.69;6214443;23;20023;-54
2021/12/02 14:36:41;;;;;;;0.45;0.45;;;;;;;4.83;100.00;99617.16;6214027;23;20030;-55
2021/12/02 14:39:44;;;;;;;0.68;0.68;;;;;;;4.78;100.00;99622.47;6214105;22;20456;-54
2021/12/02 14:42:47;;;;;;;0.22;0.22;;;;;;;4.70;100.00;99621.16;6214129;23;20027;-54
2021/12/02 14:46:09;;;;;;;2.85;0.85;;;;;;;4.59;100.00;99613.97;6214141;22;20071;-54
2021/12/02 14:49:27;;;;;;;1.55;0.55;;;;;;;4.45;100.00;99636.47;6214606;23;20468;-54
2021/12/02 14:52:34;;;;;;;0.40;0.40;;;;;;;4.36;100.00;99633.56;6213967;23;20027;-54
2021/12/02 14:55:37;;;;;;;2.65;1.90;;;;;;;4.29;100.00;99649.53;6213291;22;20031;-54
2021/12/02 14:58:39;;;;;;;1.08;0.98;;;;;;;4.24;100.00;99644.59;6230300;22;20070;-54
2021/12/02 15:02:10;;;;;;;1.25;1.25;;;;;;;4.22;100.00;99647.75;6214089;22;20070;-54
2021/12/02 15:05:23;;;;;;;1.25;1.17;;;;;;;4.20;100.00;99650.19;6214868;22;20035;-58
2021/12/02 15:08:33;;;;;;;2.03;1.88;;;;;;;4.16;100.00;99640.50;6214337;23;20511;-57
2021/12/02 15:11:36;;;;;;;2.38;1.95;;;;;;;4.09;100.00;99649.75;6213083;23;20078;-57
2021/12/02 15:14:41;;;;;;;2.33;1.65;;;;;;;3.99;100.00;99639.00;6214335;22;20444;-57
2021/12/02 15:17:44;;;;;;;1.75;1.45;;;;;;;3.94;100.00;99639.53;6213777;23;20091;-53
2021/12/02 15:20:49;;;;;;;4.35;1.83;;;;;;;3.87;100.00;99631.47;6213862;22;20070;-55